Time;durP1;ratioP1;P1;durP2;ratioP2;P2;SDS_P1;SDS_P2;PMS_P1;PMS_P2;Temp;Humidity;BMP_temperature;BMP_pressure;BME280_temperature;BME280_humidity;BME280_pressure;Samples;Min_cycle;Max_cycle;Signal;HPM_P1;HPM_P2
2022/03/27 00:01:28;;;;;;;20.58;13.95;;;;;;;4.84;76.11;102527.97;7392077;19;20039;-66
2022/03/27 00:03:56;;;;;;;17.45;13.13;;;;;;;4.78;76.15;102526.06;7393995;19;20419;-66
2022/03/27 00:06:28;;;;;;;19.30;13.48;;;;;;;4.72;76.21;102526.75;7394022;19;20481;-66
2022/03/27 00:08:56;;;;;;;19.42;13.40;;;;;;;4.66;76.28;102528.28;7392670;19;20023;-66
2022/03/27 00:11:28;;;;;;;33.92;22.60;;;;;;;4.61;76.20;102527.25;7391765;19;20031;-66
2022/03/27 00:13:58;;;;;;;24.48;14.48;;;;;;;4.55;76.25;102527.97;7393126;19;20026;-66
2022/03/27 00:16:26;;;;;;;19.52;13.10;;;;;;;4.50;76.33;102526.91;7393747;19;20019;-66
2022/03/27 00:18:55;;;;;;;21.17;14.00;;;;;;;4.44;76.29;102524.13;7392145;19;20035;-66
2022/03/27 00:21:24;;;;;;;17.92;13.82;;;;;;;4.37;76.30;102533.44;7393616;19;20019;-68
2022/03/27 00:23:56;;;;;;;18.42;12.90;;;;;;;4.32;76.29;102540.19;7397059;19;20014;-69
2022/03/27 00:26:24;;;;;;;17.90;13.18;;;;;;;4.26;76.16;102540.00;7397846;19;20382;-66
2022/03/27 00:28:53;;;;;;;18.20;13.10;;;;;;;4.18;76.44;102532.84;7398899;19;20426;-66
2022/03/27 00:31:22;;;;;;;20.73;13.23;;;;;;;4.13;76.47;102538.69;7400643;19;20019;-66
2022/03/27 00:33:50;;;;;;;21.27;12.32;;;;;;;4.05;76.25;102534.13;7397870;19;20074;-66
2022/03/27 00:36:21;;;;;;;18.02;13.02;;;;;;;3.99;76.61;102536.50;7400005;19;20422;-66
2022/03/27 00:38:49;;;;;;;14.82;10.73;;;;;;;3.94;76.48;102542.38;7398933;19;20030;-66
2022/03/27 00:41:19;;;;;;;12.52;9.85;;;;;;;3.89;76.56;102547.41;7397809;19;20022;-66
2022/03/27 00:43:48;;;;;;;11.80;9.13;;;;;;;3.85;76.84;102548.13;7398245;19;20026;-66
2022/03/27 00:46:16;;;;;;;11.90;9.43;;;;;;;3.80;76.80;102539.31;7397626;19;20031;-66
2022/03/27 00:48:44;;;;;;;10.85;8.57;;;;;;;3.74;76.87;102546.06;7397565;19;20019;-66
2022/03/27 00:51:12;;;;;;;13.25;9.05;;;;;;;3.70;77.25;102543.28;7400049;19;20027;-65
2022/03/27 00:53:40;;;;;;;13.45;9.75;;;;;;;3.66;77.31;102542.28;7397438;19;20028;-66
2022/03/27 00:56:09;;;;;;;12.80;10.07;;;;;;;3.63;77.33;102542.19;7397428;19;20023;-66
2022/03/27 00:58:40;;;;;;;15.25;10.65;;;;;;;3.59;77.37;102537.72;7398024;19;20462;-66
2022/03/27 01:01:18;;;;;;;13.43;9.93;;;;;;;3.56;77.59;102540.19;7397756;19;20015;-66
2022/03/27 01:03:47;;;;;;;12.80;10.27;;;;;;;3.53;77.60;102537.50;7399334;19;20510;-66
2022/03/27 01:06:31;;;;;;;21.90;11.57;;;;;;;3.43;77.62;102525.91;7399157;19;20385;-66
2022/03/27 01:11:40;;;;;;;19.50;12.93;;;;;;;3.42;77.84;102540.59;7399679;19;20019;-66
2022/03/27 01:14:11;;;;;;;15.10;11.10;;;;;;;3.40;77.72;102534.47;7398463;19;20070;-66
2022/03/27 01:16:42;;;;;;;15.85;10.88;;;;;;;3.36;77.95;102534.28;7397421;19;20022;-66
2022/03/27 01:19:13;;;;;;;15.73;10.93;;;;;;;3.30;77.91;102526.25;7396917;19;20028;-66
2022/03/27 01:21:47;;;;;;;18.75;11.65;;;;;;;3.27;78.08;102537.41;7399493;19;20030;-66
2022/03/27 01:24:17;;;;;;;17.45;11.90;;;;;;;3.24;77.96;102532.13;7397178;19;20046;-66
2022/03/27 01:26:47;;;;;;;16.08;10.98;;;;;;;3.19;78.15;102534.53;7397126;19;20074;-66
2022/03/27 01:29:15;;;;;;;13.75;10.35;;;;;;;3.14;78.18;102543.00;7396866;19;20035;-66
2022/03/27 01:31:43;;;;;;;12.80;10.10;;;;;;;3.07;77.97;102532.38;7396564;19;20082;-66
2022/03/27 01:34:11;;;;;;;13.85;10.43;;;;;;;3.02;78.28;102531.31;7395215;19;20091;-66
2022/03/27 01:36:40;;;;;;;13.63;10.20;;;;;;;2.95;78.31;102529.31;7395236;19;20039;-66
2022/03/27 01:39:11;;;;;;;12.18;9.32;;;;;;;2.93;78.37;102533.53;7396789;19;20082;-66
2022/03/27 01:41:40;;;;;;;12.50;10.07;;;;;;;2.88;78.58;102527.28;7398842;19;20023;-66
2022/03/27 01:44:10;;;;;;;12.40;10.25;;;;;;;2.85;78.48;102522.00;7398266;19;20069;-66
2022/03/27 01:46:46;;;;;;;16.50;11.18;;;;;;;2.83;78.71;102526.22;7395345;19;20011;-66
2022/03/27 01:49:16;;;;;;;16.13;11.73;;;;;;;2.81;78.82;102527.91;7396810;19;20023;-66
2022/03/27 01:51:46;;;;;;;15.15;12.45;;;;;;;2.77;79.01;102527.75;7396460;19;20014;-66
2022/03/27 01:54:19;;;;;;;14.50;12.13;;;;;;;2.75;79.23;102537.19;7397165;19;20026;-65
2022/03/27 01:56:47;;;;;;;16.90;12.90;;;;;;;2.72;79.13;102531.88;7398833;19;20066;-66
2022/03/27 01:59:16;;;;;;;14.45;11.38;;;;;;;2.70;79.37;102533.53;7396427;19;20018;-65
2022/03/27 02:01:44;;;;;;;15.15;11.50;;;;;;;2.67;79.30;102536.00;7395717;19;20023;-65
2022/03/27 02:04:13;;;;;;;13.52;11.60;;;;;;;2.66;79.62;102533.38;7397620;19;20031;-65
2022/03/27 02:06:43;;;;;;;14.23;11.75;;;;;;;2.61;79.63;102533.16;7395721;19;20041;-66
2022/03/27 02:09:12;;;;;;;12.88;11.30;;;;;;;2.59;79.55;102533.13;7395548;19;20029;-66
2022/03/27 02:11:44;;;;;;;13.82;11.10;;;;;;;2.57;79.64;102537.34;7397337;19;20022;-66
2022/03/27 02:14:12;;;;;;;14.60;11.05;;;;;;;2.53;79.33;102538.06;7395851;19;20077;-66
2022/03/27 02:16:42;;;;;;;13.90;12.30;;;;;;;2.53;79.40;102534.59;7396847;19;20435;-66
2022/03/27 02:19:12;;;;;;;14.65;11.63;;;;;;;2.50;79.51;102542.22;7395631;19;20086;-66
2022/03/27 02:21:42;;;;;;;18.90;12.82;;;;;;;2.47;79.31;102545.56;7395350;19;20018;-66
2022/03/27 02:24:10;;;;;;;16.80;12.18;;;;;;;2.43;79.52;102552.31;7395304;19;20022;-66
2022/03/27 02:26:49;;;;;;;16.15;11.57;;;;;;;2.40;79.61;102551.31;7394789;19;20506;-66
2022/03/27 02:29:19;;;;;;;16.00;12.02;;;;;;;2.37;79.37;102544.31;7395613;19;20026;-66
2022/03/27 02:31:48;;;;;;;15.65;11.82;;;;;;;2.34;79.56;102553.66;7396682;19;20018;-65
2022/03/27 02:34:17;;;;;;;16.10;12.82;;;;;;;2.30;79.44;102544.91;7394810;19;20436;-66
2022/03/27 02:36:45;;;;;;;20.42;13.65;;;;;;;2.28;79.76;102546.53;7394724;19;20019;-66
2022/03/27 02:39:13;;;;;;;20.10;13.35;;;;;;;2.24;79.77;102550.69;7394683;19;20086;-66
2022/03/27 02:41:41;;;;;;;17.65;13.55;;;;;;;2.22;79.66;102556.63;7395957;19;20497;-66
2022/03/27 02:44:12;;;;;;;17.63;13.00;;;;;;;2.20;79.74;102555.66;7396289;19;20039;-66
2022/03/27 02:46:40;;;;;;;18.38;13.32;;;;;;;2.16;79.72;102564.13;7393661;19;20010;-66
2022/03/27 02:49:09;;;;;;;16.00;12.20;;;;;;;2.14;79.73;102560.59;7394594;19;20027;-66
2022/03/27 02:51:37;;;;;;;16.45;12.18;;;;;;;2.08;79.94;102567.28;7394525;19;20086;-66
2022/03/27 02:54:06;;;;;;;19.02;13.10;;;;;;;2.06;80.19;102563.75;7395723;19;20018;-66
2022/03/27 02:56:34;;;;;;;20.73;13.30;;;;;;;2.04;80.01;102570.56;7396027;19;20125;-66
2022/03/27 02:59:03;;;;;;;17.23;12.93;;;;;;;2.02;80.33;102571.31;7394071;19;20086;-66
2022/03/27 03:01:35;;;;;;;19.58;13.85;;;;;;;1.99;80.47;102574.66;7393806;19;20422;-66
2022/03/27 03:04:04;;;;;;;16.90;13.45;;;;;;;1.94;80.50;102574.44;7396178;19;20019;-66
2022/03/27 03:06:34;;;;;;;20.33;13.77;;;;;;;1.92;80.45;102578.69;7393994;19;20070;-66
2022/03/27 03:09:02;;;;;;;22.33;14.20;;;;;;;1.88;80.56;102578.50;7393925;19;20025;-66
2022/03/27 03:11:31;;;;;;;20.33;13.75;;;;;;;1.85;80.89;102581.84;7395558;19;20027;-66
2022/03/27 03:13:59;;;;;;;19.77;13.23;;;;;;;1.82;80.63;102579.13;7395308;19;20110;-66
2022/03/27 03:16:29;;;;;;;20.55;12.90;;;;;;;1.79;80.81;102579.88;7393696;19;20074;-66
2022/03/27 03:19:00;;;;;;;22.00;14.57;;;;;;;1.77;81.02;102578.03;7394071;19;20031;-66
2022/03/27 03:21:28;;;;;;;21.67;14.70;;;;;;;1.73;80.92;102587.38;7393918;19;20019;-66
2022/03/27 03:23:56;;;;;;;21.38;15.57;;;;;;;1.72;80.94;102589.84;7395101;19;20018;-66
2022/03/27 03:26:25;;;;;;;22.23;14.65;;;;;;;1.70;80.89;102587.22;7395046;19;20031;-66
2022/03/27 03:28:53;;;;;;;19.67;14.13;;;;;;;1.65;81.36;102580.94;7393161;19;20035;-66
2022/03/27 03:34:04;;;;;;;20.70;16.15;;;;;;;1.62;81.16;102581.69;7392726;19;20493;-66
2022/03/27 03:36:32;;;;;;;21.00;14.98;;;;;;;1.59;81.33;102581.56;7395329;19;20031;-66
2022/03/27 03:39:00;;;;;;;19.83;15.57;;;;;;;1.58;81.39;102590.16;7392872;19;20022;-66
2022/03/27 03:41:28;;;;;;;23.27;15.88;;;;;;;1.57;81.62;102582.31;7394671;19;20019;-65
2022/03/27 03:43:56;;;;;;;21.65;15.25;;;;;;;1.56;81.59;102580.53;7392576;19;20015;-66
2022/03/27 03:46:25;;;;;;;20.45;14.88;;;;;;;1.54;81.62;102588.25;7392043;19;20411;-66
2022/03/27 03:48:53;;;;;;;19.88;14.75;;;;;;;1.54;81.57;102584.75;7393192;19;20022;-66
2022/03/27 03:51:23;;;;;;;19.65;14.63;;;;;;;1.53;81.81;102588.16;7392573;19;20035;-65
2022/03/27 03:53:51;;;;;;;21.38;15.35;;;;;;;1.52;81.84;102582.09;7394158;19;20485;-66
2022/03/27 03:56:20;;;;;;;20.35;13.70;;;;;;;1.52;81.82;102583.81;7392501;19;20015;-66
2022/03/27 03:58:48;;;;;;;17.45;13.40;;;;;;;1.51;81.91;102576.88;7396078;19;20035;-65
2022/03/27 04:01:16;;;;;;;19.17;14.40;;;;;;;1.50;81.75;102581.13;7401362;19;20506;-66
2022/03/27 04:03:44;;;;;;;18.10;13.73;;;;;;;1.50;81.73;102575.09;7401620;19;20022;-66
2022/03/27 04:06:13;;;;;;;19.60;14.75;;;;;;;1.48;81.83;102580.22;7401641;19;20036;-66
2022/03/27 04:08:43;;;;;;;19.38;14.13;;;;;;;1.47;81.96;102570.66;7399915;19;20035;-66
2022/03/27 04:11:16;;;;;;;19.80;15.07;;;;;;;1.45;81.64;102567.13;7399191;19;20027;-66
2022/03/27 04:13:44;;;;;;;19.63;14.45;;;;;;;1.42;81.96;102564.41;7401822;19;20025;-66
2022/03/27 04:16:12;;;;;;;17.02;13.55;;;;;;;1.41;81.69;102563.50;7398477;19;20023;-66
2022/03/27 04:18:40;;;;;;;17.90;14.20;;;;;;;1.37;81.89;102563.31;7397841;19;20505;-66
2022/03/27 04:21:09;;;;;;;16.13;13.65;;;;;;;1.35;81.72;102559.75;7398277;19;20019;-66
2022/03/27 04:23:46;;;;;;;19.27;14.75;;;;;;;1.29;81.92;102557.78;7400887;19;20037;-66
2022/03/27 04:26:14;;;;;;;18.85;14.80;;;;;;;1.25;82.02;102566.22;7398798;19;20026;-65
2022/03/27 04:28:43;;;;;;;22.95;15.55;;;;;;;1.21;81.88;102566.88;7398099;19;20022;-66
2022/03/27 04:31:11;;;;;;;24.35;16.90;;;;;;;1.17;82.08;102564.97;7398134;19;20011;-66
2022/03/27 04:33:39;;;;;;;25.58;17.17;;;;;;;1.13;81.85;102572.56;7400724;19;20018;-66
2022/03/27 04:36:08;;;;;;;25.33;16.77;;;;;;;1.08;81.90;102568.91;7398369;19;20019;-66
2022/03/27 04:38:37;;;;;;;25.25;17.05;;;;;;;1.05;82.12;102576.53;7399326;19;20025;-66
2022/03/27 04:41:07;;;;;;;25.30;15.02;;;;;;;1.02;82.03;102576.38;7400144;19;20533;-66
2022/03/27 04:43:35;;;;;;;25.42;15.85;;;;;;;0.99;82.23;102586.56;7398488;19;20015;-66
2022/03/27 04:46:07;;;;;;;19.30;15.30;;;;;;;0.96;82.04;102582.16;7397213;19;20014;-66
2022/03/27 04:48:35;;;;;;;19.02;16.08;;;;;;;0.93;82.35;102581.97;7399064;19;20018;-66
2022/03/27 04:51:03;;;;;;;18.00;15.02;;;;;;;0.91;82.55;102577.56;7398906;19;20023;-66
2022/03/27 04:53:31;;;;;;;20.58;16.27;;;;;;;0.90;82.50;102570.63;7399928;19;20026;-65
2022/03/27 04:55:59;;;;;;;23.38;16.92;;;;;;;0.87;82.31;102566.19;7397454;19;20041;-66
2022/03/27 04:58:30;;;;;;;25.92;16.42;;;;;;;0.84;82.47;102568.63;7397359;19;20041;-66
2022/03/27 05:00:58;;;;;;;21.05;15.70;;;;;;;0.80;82.46;102572.75;7399844;19;20363;-66
2022/03/27 05:03:26;;;;;;;22.85;17.13;;;;;;;0.78;82.61;102576.09;7397275;19;20018;-66
2022/03/27 05:05:55;;;;;;;20.63;16.15;;;;;;;0.75;82.69;102575.97;7399644;19;20022;-66
2022/03/27 05:08:23;;;;;;;21.90;16.17;;;;;;;0.71;82.67;102574.91;7397140;19;20110;-66
2022/03/27 05:10:51;;;;;;;22.95;15.98;;;;;;;0.71;82.65;102574.00;7396848;19;20010;-66
2022/03/27 05:13:19;;;;;;;24.25;17.02;;;;;;;0.67;82.45;102579.84;7398782;19;20477;-66
2022/03/27 05:15:50;;;;;;;23.30;17.25;;;;;;;0.64;82.40;102580.59;7396377;19;20371;-65
2022/03/27 05:18:19;;;;;;;22.80;17.70;;;;;;;0.63;82.67;102577.13;7397179;19;20022;-65
2022/03/27 05:20:47;;;;;;;31.30;16.17;;;;;;;0.62;82.74;102569.28;7396738;19;20022;-65
2022/03/27 05:23:15;;;;;;;23.05;16.45;;;;;;;0.62;82.80;102571.88;7398864;19;20018;-65
2022/03/27 05:25:45;;;;;;;25.60;17.58;;;;;;;0.59;82.77;102569.16;7396211;19;20481;-65
2022/03/27 05:28:15;;;;;;;28.85;16.75;;;;;;;0.55;82.91;102572.41;7397801;19;20018;-65
2022/03/27 05:30:44;;;;;;;31.73;17.10;;;;;;;0.55;82.81;102583.59;7396411;19;20030;-65
2022/03/27 05:33:15;;;;;;;21.75;15.95;;;;;;;0.54;82.70;102586.13;7396783;19;20039;-65
2022/03/27 05:35:44;;;;;;;25.38;16.98;;;;;;;0.54;82.64;102583.53;7397498;19;20017;-66
2022/03/27 05:38:13;;;;;;;22.73;15.98;;;;;;;0.54;82.84;102589.56;7397389;19;20054;-66
2022/03/27 05:40:42;;;;;;;21.77;17.20;;;;;;;0.53;83.08;102586.94;7398240;19;20418;-66
2022/03/27 05:43:10;;;;;;;22.85;17.30;;;;;;;0.54;83.08;102581.81;7395916;19;20031;-66
2022/03/27 05:45:39;;;;;;;22.92;15.90;;;;;;;0.58;83.19;102585.44;7395120;19;20383;-66
2022/03/27 05:48:08;;;;;;;21.13;16.60;;;;;;;0.60;83.16;102586.44;7397489;19;20022;-66
2022/03/27 05:50:39;;;;;;;25.80;15.57;;;;;;;0.61;82.98;102578.75;7397977;19;20082;-66
2022/03/27 05:53:08;;;;;;;23.85;15.38;;;;;;;0.62;83.20;102575.34;7395353;19;20427;-66
2022/03/27 05:55:36;;;;;;;25.88;16.85;;;;;;;0.62;83.32;102574.44;7397177;19;20026;-66
2022/03/27 05:58:04;;;;;;;29.75;16.98;;;;;;;0.63;83.31;102583.97;7395748;19;20022;-67
2022/03/27 06:00:33;;;;;;;33.35;17.27;;;;;;;0.63;83.39;102597.81;7395727;19;20022;-67
2022/03/27 06:03:02;;;;;;;25.48;18.20;;;;;;;0.66;83.20;102599.66;7395780;19;20022;-66
2022/03/27 06:05:30;;;;;;;23.05;16.45;;;;;;;0.68;83.38;102603.16;7397731;19;20010;-66
2022/03/27 06:08:01;;;;;;;25.42;17.42;;;;;;;0.70;83.25;102598.97;7396804;19;20031;-66
2022/03/27 06:10:31;;;;;;;28.65;18.00;;;;;;;0.75;83.53;102597.50;7395925;19;20022;-65
2022/03/27 06:13:00;;;;;;;33.78;20.38;;;;;;;0.77;83.66;102593.31;7397263;19;20023;-66
2022/03/27 06:15:35;;;;;;;43.22;23.50;;;;;;;0.86;83.61;102599.72;7396562;19;20025;-66
2022/03/27 06:18:04;;;;;;;35.58;21.58;;;;;;;0.89;83.53;102600.75;7396311;19;20035;-64
2022/03/27 06:20:34;;;;;;;36.60;22.35;;;;;;;0.97;83.72;102608.88;7393973;19;20041;-65
2022/03/27 06:23:06;;;;;;;37.30;21.90;;;;;;;1.02;84.01;102599.63;7396675;19;20031;-65
2022/03/27 06:25:35;;;;;;;50.40;21.88;;;;;;;1.09;83.82;102599.13;7396440;19;20502;-65
2022/03/27 06:28:04;;;;;;;30.70;19.85;;;;;;;1.15;84.19;102598.53;7396068;19;20042;-66
2022/03/27 06:30:33;;;;;;;29.80;20.33;;;;;;;1.23;84.12;102609.22;7396365;19;20473;-65
2022/03/27 06:33:02;;;;;;;33.17;22.05;;;;;;;1.28;84.40;102610.31;7396463;19;20015;-65
2022/03/27 06:35:38;;;;;;;42.72;28.17;;;;;;;1.35;84.34;102611.50;7395861;19;20018;-65
2022/03/27 06:38:09;;;;;;;47.92;30.52;;;;;;;1.42;84.29;102614.41;7394547;19;20019;-67
2022/03/27 06:40:37;;;;;;;40.15;25.55;;;;;;;1.48;84.64;102616.41;7395838;19;20372;-66
2022/03/27 06:43:07;;;;;;;32.70;21.10;;;;;;;1.54;84.48;102614.13;7396173;19;20018;-65
2022/03/27 06:45:35;;;;;;;25.52;18.23;;;;;;;1.59;84.49;102620.38;7393893;19;20022;-65
2022/03/27 06:48:10;;;;;;;25.20;16.17;;;;;;;1.68;84.58;102624.19;7394290;19;20022;-66
2022/03/27 06:50:38;;;;;;;26.23;17.80;;;;;;;1.74;84.71;102627.06;7395661;19;20501;-66
2022/03/27 06:53:07;;;;;;;23.55;17.30;;;;;;;1.81;84.63;102623.03;7395900;19;20022;-66
2022/03/27 06:55:37;;;;;;;26.83;19.83;;;;;;;1.88;85.24;102630.25;7395700;19;20010;-66
2022/03/27 06:58:05;;;;;;;26.13;18.60;;;;;;;1.96;84.85;102634.09;7395106;19;20550;-66
2022/03/27 07:03:15;;;;;;;25.35;18.02;;;;;;;2.10;85.29;102621.75;7395822;19;20018;-65
2022/03/27 07:05:45;;;;;;;25.15;17.23;;;;;;;2.17;85.23;102628.94;7393567;19;20062;-65
2022/03/27 07:08:15;;;;;;;28.13;18.85;;;;;;;2.25;85.10;102627.56;7394317;19;20097;-65
2022/03/27 07:10:47;;;;;;;27.40;19.48;;;;;;;2.35;85.22;102633.13;7393622;19;20023;-64
2022/03/27 07:13:17;;;;;;;25.70;17.90;;;;;;;2.43;85.47;102631.78;7396361;19;20010;-65
2022/03/27 07:15:47;;;;;;;25.25;19.17;;;;;;;2.51;85.49;102635.56;7393325;19;20035;-65
2022/03/27 07:18:17;;;;;;;30.10;19.83;;;;;;;2.60;85.37;102632.47;7394541;19;20019;-65
2022/03/27 07:20:46;;;;;;;28.25;19.67;;;;;;;2.65;85.37;102623.16;7393288;19;20488;-66
2022/03/27 07:23:16;;;;;;;27.08;19.52;;;;;;;2.77;85.27;102631.47;7394787;19;20014;-65
2022/03/27 07:25:49;;;;;;;25.55;17.60;;;;;;;2.87;85.60;102629.22;7393603;19;20022;-66
2022/03/27 07:28:18;;;;;;;26.00;18.88;;;;;;;2.97;85.26;102639.16;7393258;19;20428;-65
2022/03/27 07:30:47;;;;;;;28.17;19.23;;;;;;;3.06;85.50;102628.28;7393042;19;20023;-65
2022/03/27 07:33:17;;;;;;;25.65;18.77;;;;;;;3.16;85.29;102632.09;7396473;19;20019;-65
2022/03/27 07:35:45;;;;;;;26.33;18.38;;;;;;;3.26;85.08;102639.41;7401563;19;20015;-65
2022/03/27 07:38:15;;;;;;;24.13;18.98;;;;;;;3.33;85.02;102637.97;7400777;19;20397;-66
2022/03/27 07:40:43;;;;;;;24.58;19.67;;;;;;;3.43;85.30;102643.53;7401976;19;20014;-65
2022/03/27 07:43:14;;;;;;;28.55;20.25;;;;;;;3.53;85.13;102643.91;7399926;19;20011;-64
2022/03/27 07:45:42;;;;;;;29.55;21.17;;;;;;;3.64;85.33;102650.41;7403108;19;20018;-66
2022/03/27 07:48:11;;;;;;;29.85;20.80;;;;;;;3.74;85.30;102647.31;7398954;19;20033;-65
2022/03/27 07:50:39;;;;;;;25.90;19.33;;;;;;;3.85;85.19;102652.00;7401817;19;20085;-66
2022/03/27 07:53:08;;;;;;;28.77;19.92;;;;;;;3.96;85.03;102649.81;7398485;19;20032;-65
2022/03/27 07:55:37;;;;;;;28.88;19.85;;;;;;;4.06;84.90;102649.31;7400995;19;20388;-65
2022/03/27 07:58:05;;;;;;;27.23;19.65;;;;;;;4.16;85.04;102641.00;7400528;19;20021;-65
2022/03/27 08:00:36;;;;;;;29.58;20.05;;;;;;;4.28;85.00;102650.94;7401446;19;20032;-66
2022/03/27 08:03:04;;;;;;;30.95;20.15;;;;;;;4.37;84.76;102643.47;7399226;19;20022;-65
2022/03/27 08:05:32;;;;;;;26.45;18.55;;;;;;;4.50;84.77;102644.78;7401531;19;20370;-65
2022/03/27 08:08:01;;;;;;;30.45;21.42;;;;;;;4.61;84.62;102636.44;7400484;19;20032;-65
2022/03/27 08:10:30;;;;;;;28.63;20.67;;;;;;;4.71;84.40;102633.31;7398553;19;20015;-65
2022/03/27 08:12:59;;;;;;;24.20;19.30;;;;;;;4.81;84.52;102637.97;7401205;19;20018;-66
2022/03/27 08:15:27;;;;;;;26.60;19.95;;;;;;;4.92;84.71;102635.75;7398307;19;20086;-65
2022/03/27 08:17:58;;;;;;;22.58;18.35;;;;;;;5.03;84.91;102626.56;7398303;19;20022;-66
2022/03/27 08:20:29;;;;;;;22.77;17.58;;;;;;;5.15;84.70;102623.44;7398717;19;20015;-65
2022/03/27 08:22:58;;;;;;;28.10;18.63;;;;;;;5.28;85.01;102626.44;7400464;19;20576;-66
2022/03/27 08:28:10;;;;;;;24.67;18.13;;;;;;;5.53;84.75;102628.94;7400194;19;20473;-65
2022/03/27 08:30:39;;;;;;;21.95;16.88;;;;;;;5.66;85.02;102624.06;7398401;19;20018;-65
2022/03/27 08:33:10;;;;;;;21.10;16.08;;;;;;;5.78;85.01;102624.44;7400329;19;20025;-66
2022/03/27 08:35:41;;;;;;;22.13;16.98;;;;;;;5.91;85.36;102628.25;7398067;19;20019;-66
2022/03/27 08:38:10;;;;;;;23.88;17.58;;;;;;;6.03;85.15;102622.56;7399225;19;20355;-65
2022/03/27 08:40:39;;;;;;;22.00;16.23;;;;;;;6.15;85.06;102629.81;7399600;19;20333;-66
2022/03/27 08:43:10;;;;;;;20.05;15.75;;;;;;;6.27;85.11;102621.41;7400014;19;20030;-65
2022/03/27 08:45:39;;;;;;;23.17;15.95;;;;;;;6.36;85.00;102622.56;7396134;19;20484;-65
2022/03/27 08:48:10;;;;;;;18.83;14.57;;;;;;;6.49;85.23;102617.66;7397041;19;20028;-65
2022/03/27 08:50:45;;;;;;;19.13;14.10;;;;;;;6.61;85.03;102617.97;7399743;19;20427;-65
2022/03/27 08:53:14;;;;;;;21.92;14.65;;;;;;;6.72;85.15;102606.91;7396947;19;20384;-65
2022/03/27 08:55:47;;;;;;;20.92;14.00;;;;;;;6.85;84.74;102607.25;7399853;19;20010;-65
2022/03/27 08:58:16;;;;;;;22.90;17.03;;;;;;;6.99;84.36;102606.69;7398995;19;20024;-65
2022/03/27 09:00:44;;;;;;;20.40;14.18;;;;;;;7.12;84.52;102607.84;7397197;19;20022;-65
2022/03/27 09:03:15;;;;;;;16.92;13.30;;;;;;;7.26;84.28;102605.53;7399419;19;20034;-65
2022/03/27 09:05:43;;;;;;;15.85;12.15;;;;;;;7.41;83.86;102600.63;7397307;19;20014;-66
2022/03/27 09:08:13;;;;;;;18.33;12.98;;;;;;;7.56;83.54;102594.00;7396724;19;20015;-66
2022/03/27 09:10:42;;;;;;;16.08;12.55;;;;;;;7.69;82.93;102587.28;7396959;19;20039;-65
2022/03/27 09:13:13;;;;;;;15.15;12.07;;;;;;;7.81;82.57;102590.13;7396768;19;20022;-65
2022/03/27 09:15:42;;;;;;;15.30;11.68;;;;;;;7.92;82.02;102596.44;7396558;19;20367;-64
2022/03/27 09:18:12;;;;;;;12.77;10.98;;;;;;;8.03;81.83;102590.53;7396698;19;20022;-64
2022/03/27 09:20:46;;;;;;;28.88;19.13;;;;;;;8.12;81.02;102586.34;7396802;19;20023;-66
2022/03/27 09:23:18;;;;;;;14.35;11.32;;;;;;;8.24;80.72;102577.84;7397141;19;20047;-65
2022/03/27 09:25:57;;;;;;;15.82;12.02;;;;;;;8.35;80.36;102574.53;7399307;19;20033;-67
2022/03/27 09:28:33;;;;;;;17.17;11.75;;;;;;;8.46;79.75;102573.00;7397371;19;20419;-66
2022/03/27 09:31:04;;;;;;;11.85;9.77;;;;;;;8.54;79.12;102568.75;7396450;19;20037;-66
2022/03/27 09:33:46;;;;;;;12.02;9.95;;;;;;;8.68;78.29;102568.13;7396445;19;20384;-66
2022/03/27 09:36:21;;;;;;;13.15;9.55;;;;;;;8.80;77.90;102568.31;7398513;19;20014;-66
2022/03/27 09:39:09;;;;;;;11.93;9.45;;;;;;;8.92;76.27;102576.34;7396818;19;20035;-66
2022/03/27 09:41:44;;;;;;;11.65;9.40;;;;;;;9.03;76.57;102573.00;7397994;19;20509;-66
2022/03/27 09:44:14;;;;;;;12.73;9.52;;;;;;;9.10;76.08;102567.84;7395668;19;20022;-64
2022/03/27 09:46:57;;;;;;;15.07;8.50;;;;;;;9.19;73.31;102574.09;7396817;19;20027;-65
2022/03/27 09:49:28;;;;;;;9.27;7.32;;;;;;;9.32;72.94;102570.75;7395327;19;20365;-64
2022/03/27 09:52:05;;;;;;;11.15;8.60;;;;;;;9.43;72.08;102569.16;7398091;19;20021;-65
2022/03/27 09:54:50;;;;;;;11.32;8.73;;;;;;;9.56;71.29;102561.44;7397777;19;20520;-65
2022/03/27 09:57:20;;;;;;;10.60;7.90;;;;;;;9.65;71.90;102565.91;7392721;19;20369;-65
2022/03/27 09:59:48;;;;;;;11.90;9.30;;;;;;;9.70;71.59;102562.47;7395984;19;20022;-64
2022/03/27 10:02:28;;;;;;;11.77;8.65;;;;;;;9.75;69.99;102558.16;7396809;19;20484;-65
2022/03/27 10:05:01;;;;;;;11.57;8.27;;;;;;;9.83;70.99;102562.59;7397388;19;20035;-65
2022/03/27 10:07:37;;;;;;;11.07;8.90;;;;;;;9.90;71.35;102567.91;7395665;19;20019;-66
2022/03/27 10:10:07;;;;;;;13.00;9.27;;;;;;;9.95;70.86;102553.13;7395066;19;20387;-66
2022/03/27 10:12:37;;;;;;;11.25;8.55;;;;;;;10.02;70.86;102550.56;7396583;19;20481;-65
2022/03/27 10:15:13;;;;;;;10.85;8.18;;;;;;;10.08;70.00;102555.88;7397996;19;20078;-66
2022/03/27 10:17:44;;;;;;;12.88;8.75;;;;;;;10.19;69.75;102556.84;7395929;19;20121;-65
2022/03/27 10:20:15;;;;;;;9.07;7.82;;;;;;;10.27;69.23;102549.03;7395133;19;20022;-64
2022/03/27 10:22:48;;;;;;;10.40;8.13;;;;;;;10.39;68.42;102550.94;7397022;19;20353;-64
2022/03/27 10:25:18;;;;;;;10.98;9.10;;;;;;;10.49;68.29;102549.22;7396544;19;20075;-65
2022/03/27 10:27:48;;;;;;;12.43;9.02;;;;;;;10.55;68.22;102539.69;7396281;19;20025;-65
2022/03/27 10:30:19;;;;;;;8.85;7.07;;;;;;;10.59;67.73;102535.34;7394201;19;20351;-65
2022/03/27 10:32:47;;;;;;;9.77;7.22;;;;;;;10.65;67.00;102532.72;7394371;19;20021;-65
2022/03/27 10:35:44;;;;;;;8.45;6.95;;;;;;;10.72;66.04;102531.91;7394866;19;20035;-65
2022/03/27 10:38:24;;;;;;;8.18;6.55;;;;;;;10.79;66.19;102530.19;7393359;19;20018;-65
2022/03/27 10:41:02;;;;;;;10.23;8.25;;;;;;;10.87;65.76;102535.50;7394408;19;20015;-65
2022/03/27 10:43:37;;;;;;;9.95;7.60;;;;;;;10.94;65.00;102526.78;7394803;19;20022;-65
2022/03/27 10:46:16;;;;;;;10.55;7.47;;;;;;;11.02;63.97;102522.44;7394710;19;20368;-68
2022/03/27 10:48:45;;;;;;;12.63;8.15;;;;;;;11.14;65.21;102524.25;7393253;19;20014;-65
2022/03/27 10:51:15;;;;;;;11.73;7.75;;;;;;;11.22;64.62;102508.50;7395874;19;20031;-66
2022/03/27 10:54:02;;;;;;;12.80;9.85;;;;;;;11.30;63.49;102512.06;7395913;19;20018;-66
2022/03/27 10:56:36;;;;;;;11.48;8.52;;;;;;;11.38;64.07;102512.94;7396493;19;20097;-68
2022/03/27 10:59:13;;;;;;;10.95;7.90;;;;;;;11.45;63.51;102505.97;7394082;19;20037;-66
2022/03/27 11:01:43;;;;;;;10.30;7.80;;;;;;;11.51;63.61;102500.75;7393757;19;20035;-66
2022/03/27 11:04:14;;;;;;;11.27;7.65;;;;;;;11.57;63.22;102495.50;7393866;19;20030;-66
2022/03/27 11:06:43;;;;;;;8.60;7.35;;;;;;;11.66;62.78;102501.63;7393261;19;20014;-66
2022/03/27 11:09:33;;;;;;;9.98;7.05;;;;;;;11.74;61.61;102495.50;7393743;19;20018;-66
2022/03/27 11:12:02;;;;;;;11.25;8.15;;;;;;;11.83;61.93;102488.53;7394067;19;20010;-66
2022/03/27 11:15:08;;;;;;;8.98;6.80;;;;;;;11.93;61.05;102492.91;7393221;19;20018;-65
2022/03/27 11:17:45;;;;;;;10.20;7.22;;;;;;;12.02;60.56;102485.03;7394114;19;20023;-65
2022/03/27 11:20:30;;;;;;;10.77;7.20;;;;;;;12.12;60.79;102483.31;7392880;19;20377;-67
2022/03/27 11:22:59;;;;;;;8.00;6.70;;;;;;;12.24;60.66;102482.41;7392676;19;20018;-65
2022/03/27 11:25:33;;;;;;;9.48;6.95;;;;;;;12.33;60.08;102482.41;7393017;19;20022;-64
2022/03/27 11:28:13;;;;;;;9.10;6.63;;;;;;;12.44;59.39;102485.00;7393740;19;20373;-65
2022/03/27 11:30:58;;;;;;;9.63;5.85;;;;;;;12.55;59.11;102480.59;7395002;19;20015;-66
2022/03/27 11:33:26;;;;;;;;;;;;;;;12.63;57.59;102474.44;7394554;19;20014;-65
2022/03/27 11:36:25;;;;;;;8.23;5.45;;;;;;;12.71;56.96;102465.66;7394353;19;19915;-65
2022/03/27 11:39:07;;;;;;;6.88;5.15;;;;;;;12.79;56.82;102464.72;7392286;19;20014;-66
2022/03/27 11:41:42;;;;;;;6.00;4.93;;;;;;;12.86;57.06;102459.47;7392612;19;20019;-64
2022/03/27 11:45:06;;;;;;;5.53;4.47;;;;;;;12.95;55.49;102449.75;7392179;19;20384;-67
2022/03/27 11:47:20;;;;;;;7.05;4.50;;;;;;;13.04;55.75;102452.31;7393590;19;20361;-66